Seeley, CA

22:17 PDT le 26 septembre 2016 (GMT -0700)
El Centro Naval Air Facility | | Change Station

Alt. -43 ft 32.83 °N, 115.66 °W | Updated 21 minutes ago

Scattered Clouds
Nuages épars
85 ° F
Paraît 85 ° F
N
7
Vent Variable Vent de SSE

Aujourd'hui
Haut(e) -- | Bas -- ° F
--% Risque de précip.
Hier
Haut(e) -- | Bas -- ° F
Precip. -- pouce
Pression 29.95 pouce
Visibilité 10.0 Miles terrestres
Nuages Peu 12000 ft
Nuages épars 18000 ft
Point de rosée 49 ° F
Humidité 29%
Précipitations 0.00 pouce
Profondeur de la couche neigeuse Non disponible.
6:33 AM 6:33 PM
Lune descendante, 14% visible
METAR KNJK 270456Z 16006KT 10SM FEW120 SCT180 29/09 A2990 RMK AO2 SLP140 T02940094
Pression 29.95 pouce
Visibilité 10.0 Miles terrestres
Nuages Peu 12000 ft
Nuages épars 18000 ft
Point de rosée 49 ° F
Humidité 29%
Précipitations 0.00 pouce
Profondeur de la couche neigeuse Non disponible.
6:33 AM 6:33 PM
Lune descendante, 14% visible
METAR KNJK 270456Z 16006KT 10SM FEW120 SCT180 29/09 A2990 RMK AO2 SLP140 T02940094

10-Day Weather Forecast

Almanac

Astronomie

Sep. 26, 2016 Lever Coucher
Temps réel
Crépuscule civil
Crépuscule nautique
Crépuscule astronomique
Lune
Durée de lumière visible
Longueur du jour
Tomorrow will be .
, % of the Moon is Illuminated

Extrêmes aujourd'hui

State Highs State Lows

Community

WunderPhotos

Upload Photos

1,942,038 Photos téléchargées !

WunderBlog® & News

Nearby

Qualité de l'air

  Qualité de l'air Indice de la qualité de l'air Polluant
Not available.

Épaisseur de neige

Station Depth Altitude

Activité sismique

Ville Distance Mag. Time & Date
Minimum magnitude displayed is 2.5.

Températures des eaux côtières

Lieu Température

Stations

Stations météo à proximité

Emplacement de la station Température Refroidissement éolien Point de rosée Humidité Vent Precip. Alt. Mise à jour Type
                   

Watches & Warnings

There are currently no watches in effect.